Terminal Aerodrome Forecast
Issued by NWS Topeka, KS

Current Version | Previous Version | Text Only | Print | Product List | Glossary On
Versions: 1 2 3 4 5 6 7 8 9 10 11 12 13 14 15 16
000
FTUS43 KTOP 280520
TAFTOP
TAF
KTOP 280520Z 2806/2906 17012G19KT P6SM SCT100 WS020/19055KT
     FM281200 18015G22KT P6SM VCTS BKN090CB WS020/20052KT
     FM281400 19017G25KT P6SM SCT040 BKN070
     FM290200 18010KT P6SM BKN070=

USA.gov is the U.S. government's official web portal to all federal, state and local government web resources and services.